sensor_id;sensor_type;location;lat;lon;timestamp;P1;durP1;ratioP1;P2;durP2;ratioP2
2570;SDS011;1295;51.130;6.732;2023-01-28T00:01:12;69.70;;;21.63;;
2570;SDS011;1295;51.130;6.732;2023-01-28T00:03:37;89.23;;;68.33;;
2570;SDS011;1295;51.130;6.732;2023-01-28T00:06:03;75.77;;;39.00;;
2570;SDS011;1295;51.130;6.732;2023-01-28T00:08:30;77.30;;;39.23;;
2570;SDS011;1295;51.130;6.732;2023-01-28T00:10:57;67.77;;;16.43;;
2570;SDS011;1295;51.130;6.732;2023-01-28T00:13:22;80.07;;;46.60;;
2570;SDS011;1295;51.130;6.732;2023-01-28T00:15:53;73.93;;;37.57;;
2570;SDS011;1295;51.130;6.732;2023-01-28T00:18:13;75.20;;;37.03;;
2570;SDS011;1295;51.130;6.732;2023-01-28T00:20:39;65.93;;;13.60;;
2570;SDS011;1295;51.130;6.732;2023-01-28T00:23:05;65.70;;;12.63;;
2570;SDS011;1295;51.130;6.732;2023-01-28T00:25:31;69.00;;;15.40;;
2570;SDS011;1295;51.130;6.732;2023-01-28T00:27:57;73.63;;;34.90;;
2570;SDS011;1295;51.130;6.732;2023-01-28T00:30:22;75.40;;;35.33;;
2570;SDS011;1295;51.130;6.732;2023-01-28T00:32:48;73.60;;;30.50;;
2570;SDS011;1295;51.130;6.732;2023-01-28T00:35:13;68.67;;;14.20;;
2570;SDS011;1295;51.130;6.732;2023-01-28T00:37:39;69.93;;;18.63;;
2570;SDS011;1295;51.130;6.732;2023-01-28T00:40:05;75.00;;;36.40;;
2570;SDS011;1295;51.130;6.732;2023-01-28T00:42:32;72.63;;;30.20;;
2570;SDS011;1295;51.130;6.732;2023-01-28T00:44:57;72.00;;;31.13;;
2570;SDS011;1295;51.130;6.732;2023-01-28T00:47:24;68.97;;;23.53;;
2570;SDS011;1295;51.130;6.732;2023-01-28T00:49:49;72.40;;;24.47;;
2570;SDS011;1295;51.130;6.732;2023-01-28T00:52:16;73.77;;;32.07;;
2570;SDS011;1295;51.130;6.732;2023-01-28T00:54:42;82.10;;;53.20;;
2570;SDS011;1295;51.130;6.732;2023-01-28T00:57:23;74.20;;;30.70;;
2570;SDS011;1295;51.130;6.732;2023-01-28T00:59:48;70.37;;;19.73;;
2570;SDS011;1295;51.130;6.732;2023-01-28T01:02:14;72.07;;;29.50;;
2570;SDS011;1295;51.130;6.732;2023-01-28T01:04:39;75.67;;;40.03;;
2570;SDS011;1295;51.130;6.732;2023-01-28T01:07:05;76.97;;;38.37;;
2570;SDS011;1295;51.130;6.732;2023-01-28T01:09:31;81.77;;;41.90;;
2570;SDS011;1295;51.130;6.732;2023-01-28T01:11:56;74.97;;;32.80;;
2570;SDS011;1295;51.130;6.732;2023-01-28T01:14:22;78.73;;;43.97;;
2570;SDS011;1295;51.130;6.732;2023-01-28T01:16:48;74.93;;;28.93;;
2570;SDS011;1295;51.130;6.732;2023-01-28T01:19:13;75.37;;;20.53;;
2570;SDS011;1295;51.130;6.732;2023-01-28T01:21:39;75.10;;;23.50;;
2570;SDS011;1295;51.130;6.732;2023-01-28T01:24:05;75.50;;;30.27;;
2570;SDS011;1295;51.130;6.732;2023-01-28T01:26:31;72.13;;;23.33;;
2570;SDS011;1295;51.130;6.732;2023-01-28T01:28:57;70.47;;;17.80;;
2570;SDS011;1295;51.130;6.732;2023-01-28T01:31:22;73.87;;;22.43;;
2570;SDS011;1295;51.130;6.732;2023-01-28T01:33:48;76.53;;;28.70;;
2570;SDS011;1295;51.130;6.732;2023-01-28T01:36:15;74.10;;;23.43;;
2570;SDS011;1295;51.130;6.732;2023-01-28T01:38:40;74.00;;;22.03;;
2570;SDS011;1295;51.130;6.732;2023-01-28T01:41:06;71.03;;;21.03;;
2570;SDS011;1295;51.130;6.732;2023-01-28T01:46:09;74.40;;;18.63;;
2570;SDS011;1295;51.130;6.732;2023-01-28T01:48:35;76.57;;;17.97;;
2570;SDS011;1295;51.130;6.732;2023-01-28T01:51:02;73.37;;;20.17;;
2570;SDS011;1295;51.130;6.732;2023-01-28T01:53:27;73.50;;;16.97;;
2570;SDS011;1295;51.130;6.732;2023-01-28T01:55:53;72.47;;;19.90;;
2570;SDS011;1295;51.130;6.732;2023-01-28T01:58:18;73.20;;;17.93;;
2570;SDS011;1295;51.130;6.732;2023-01-28T02:00:44;74.93;;;19.47;;
2570;SDS011;1295;51.130;6.732;2023-01-28T02:03:09;68.20;;;15.00;;
2570;SDS011;1295;51.130;6.732;2023-01-28T02:05:35;74.00;;;15.67;;
2570;SDS011;1295;51.130;6.732;2023-01-28T02:08:01;70.60;;;15.97;;
2570;SDS011;1295;51.130;6.732;2023-01-28T02:10:32;74.97;;;24.63;;
2570;SDS011;1295;51.130;6.732;2023-01-28T02:12:58;72.50;;;19.00;;
2570;SDS011;1295;51.130;6.732;2023-01-28T02:15:24;75.90;;;22.50;;
2570;SDS011;1295;51.130;6.732;2023-01-28T02:17:50;73.47;;;21.43;;
2570;SDS011;1295;51.130;6.732;2023-01-28T02:20:18;79.57;;;22.97;;
2570;SDS011;1295;51.130;6.732;2023-01-28T02:22:51;70.97;;;23.50;;
2570;SDS011;1295;51.130;6.732;2023-01-28T02:25:31;73.07;;;22.03;;
2570;SDS011;1295;51.130;6.732;2023-01-28T02:28:12;73.10;;;23.27;;
2570;SDS011;1295;51.130;6.732;2023-01-28T02:30:41;75.93;;;19.27;;
2570;SDS011;1295;51.130;6.732;2023-01-28T02:33:08;71.20;;;19.00;;
2570;SDS011;1295;51.130;6.732;2023-01-28T02:35:38;71.57;;;24.47;;
2570;SDS011;1295;51.130;6.732;2023-01-28T02:38:04;69.87;;;20.07;;
2570;SDS011;1295;51.130;6.732;2023-01-28T02:40:29;70.43;;;21.43;;
2570;SDS011;1295;51.130;6.732;2023-01-28T02:42:55;72.30;;;19.57;;
2570;SDS011;1295;51.130;6.732;2023-01-28T02:45:21;69.10;;;16.57;;
2570;SDS011;1295;51.130;6.732;2023-01-28T02:47:45;67.50;;;12.23;;
2570;SDS011;1295;51.130;6.732;2023-01-28T02:50:17;70.20;;;12.90;;
2570;SDS011;1295;51.130;6.732;2023-01-28T02:52:51;70.87;;;16.87;;
2570;SDS011;1295;51.130;6.732;2023-01-28T02:58:14;68.97;;;16.17;;
2570;SDS011;1295;51.130;6.732;2023-01-28T03:00:45;70.37;;;17.17;;
2570;SDS011;1295;51.130;6.732;2023-01-28T03:03:17;69.33;;;14.73;;
2570;SDS011;1295;51.130;6.732;2023-01-28T03:05:43;68.77;;;16.00;;
2570;SDS011;1295;51.130;6.732;2023-01-28T03:08:08;72.73;;;16.63;;
2570;SDS011;1295;51.130;6.732;2023-01-28T03:10:40;71.53;;;14.00;;
2570;SDS011;1295;51.130;6.732;2023-01-28T03:13:05;68.93;;;18.20;;
2570;SDS011;1295;51.130;6.732;2023-01-28T03:15:39;68.73;;;14.23;;
2570;SDS011;1295;51.130;6.732;2023-01-28T03:18:16;71.07;;;14.00;;
2570;SDS011;1295;51.130;6.732;2023-01-28T03:21:05;72.03;;;16.03;;
2570;SDS011;1295;51.130;6.732;2023-01-28T03:23:46;72.70;;;16.10;;
2570;SDS011;1295;51.130;6.732;2023-01-28T03:26:18;75.03;;;20.57;;
2570;SDS011;1295;51.130;6.732;2023-01-28T03:28:50;74.97;;;17.27;;
2570;SDS011;1295;51.130;6.732;2023-01-28T03:31:22;77.60;;;19.60;;
2570;SDS011;1295;51.130;6.732;2023-01-28T03:33:53;77.60;;;16.90;;
2570;SDS011;1295;51.130;6.732;2023-01-28T03:36:25;74.20;;;14.37;;
2570;SDS011;1295;51.130;6.732;2023-01-28T03:38:57;80.60;;;17.90;;
2570;SDS011;1295;51.130;6.732;2023-01-28T03:41:23;79.63;;;17.87;;
2570;SDS011;1295;51.130;6.732;2023-01-28T03:43:48;76.20;;;16.73;;
2570;SDS011;1295;51.130;6.732;2023-01-28T03:46:15;83.10;;;20.23;;
2570;SDS011;1295;51.130;6.732;2023-01-28T03:48:41;73.57;;;15.77;;
2570;SDS011;1295;51.130;6.732;2023-01-28T03:51:06;73.03;;;17.47;;
2570;SDS011;1295;51.130;6.732;2023-01-28T03:53:32;87.07;;;19.50;;
2570;SDS011;1295;51.130;6.732;2023-01-28T03:55:57;80.57;;;19.00;;
2570;SDS011;1295;51.130;6.732;2023-01-28T03:58:23;80.90;;;21.80;;
2570;SDS011;1295;51.130;6.732;2023-01-28T04:00:51;83.30;;;21.20;;
2570;SDS011;1295;51.130;6.732;2023-01-28T04:03:17;76.83;;;16.07;;
2570;SDS011;1295;51.130;6.732;2023-01-28T04:05:42;81.20;;;17.23;;
2570;SDS011;1295;51.130;6.732;2023-01-28T04:08:11;76.70;;;17.77;;
2570;SDS011;1295;51.130;6.732;2023-01-28T04:10:38;90.17;;;18.20;;
2570;SDS011;1295;51.130;6.732;2023-01-28T04:13:03;88.33;;;19.13;;
2570;SDS011;1295;51.130;6.732;2023-01-28T04:15:29;83.37;;;19.07;;
2570;SDS011;1295;51.130;6.732;2023-01-28T04:17:54;76.70;;;17.83;;
2570;SDS011;1295;51.130;6.732;2023-01-28T04:20:20;80.60;;;18.63;;
2570;SDS011;1295;51.130;6.732;2023-01-28T04:22:46;81.80;;;18.80;;
2570;SDS011;1295;51.130;6.732;2023-01-28T04:25:11;84.33;;;19.90;;
2570;SDS011;1295;51.130;6.732;2023-01-28T04:27:37;79.93;;;19.27;;
2570;SDS011;1295;51.130;6.732;2023-01-28T04:30:03;82.87;;;19.37;;
2570;SDS011;1295;51.130;6.732;2023-01-28T04:32:29;90.57;;;17.23;;
2570;SDS011;1295;51.130;6.732;2023-01-28T04:34:55;80.13;;;17.53;;
2570;SDS011;1295;51.130;6.732;2023-01-28T04:37:21;81.43;;;16.43;;
2570;SDS011;1295;51.130;6.732;2023-01-28T04:39:47;84.33;;;18.10;;
2570;SDS011;1295;51.130;6.732;2023-01-28T04:42:13;82.83;;;17.67;;
2570;SDS011;1295;51.130;6.732;2023-01-28T04:44:55;84.40;;;15.60;;
2570;SDS011;1295;51.130;6.732;2023-01-28T04:47:20;82.37;;;16.23;;
2570;SDS011;1295;51.130;6.732;2023-01-28T04:49:46;83.03;;;19.67;;
2570;SDS011;1295;51.130;6.732;2023-01-28T04:52:11;76.50;;;15.70;;
2570;SDS011;1295;51.130;6.732;2023-01-28T04:54:37;80.13;;;16.30;;
2570;SDS011;1295;51.130;6.732;2023-01-28T04:57:03;79.13;;;15.07;;
2570;SDS011;1295;51.130;6.732;2023-01-28T04:59:29;83.83;;;17.37;;
2570;SDS011;1295;51.130;6.732;2023-01-28T05:01:55;84.83;;;17.47;;
2570;SDS011;1295;51.130;6.732;2023-01-28T05:04:21;76.17;;;14.37;;
2570;SDS011;1295;51.130;6.732;2023-01-28T05:06:47;82.87;;;15.97;;
2570;SDS011;1295;51.130;6.732;2023-01-28T05:09:12;81.00;;;14.97;;
2570;SDS011;1295;51.130;6.732;2023-01-28T05:11:38;80.27;;;16.10;;
2570;SDS011;1295;51.130;6.732;2023-01-28T05:14:04;79.03;;;17.00;;
2570;SDS011;1295;51.130;6.732;2023-01-28T05:16:30;80.57;;;17.20;;
2570;SDS011;1295;51.130;6.732;2023-01-28T05:18:55;80.63;;;17.57;;
2570;SDS011;1295;51.130;6.732;2023-01-28T05:21:21;80.20;;;16.80;;
2570;SDS011;1295;51.130;6.732;2023-01-28T05:23:47;81.73;;;15.60;;
2570;SDS011;1295;51.130;6.732;2023-01-28T05:26:12;77.03;;;13.87;;
2570;SDS011;1295;51.130;6.732;2023-01-28T05:28:38;77.23;;;14.90;;
2570;SDS011;1295;51.130;6.732;2023-01-28T05:31:04;84.50;;;17.17;;
2570;SDS011;1295;51.130;6.732;2023-01-28T05:33:30;78.90;;;16.17;;
2570;SDS011;1295;51.130;6.732;2023-01-28T05:35:57;78.60;;;14.20;;
2570;SDS011;1295;51.130;6.732;2023-01-28T05:38:22;76.73;;;15.70;;
2570;SDS011;1295;51.130;6.732;2023-01-28T05:40:48;78.70;;;15.57;;
2570;SDS011;1295;51.130;6.732;2023-01-28T05:43:13;75.50;;;14.23;;
2570;SDS011;1295;51.130;6.732;2023-01-28T05:45:39;74.07;;;12.87;;
2570;SDS011;1295;51.130;6.732;2023-01-28T05:48:05;77.70;;;14.03;;
2570;SDS011;1295;51.130;6.732;2023-01-28T05:50:31;76.53;;;13.80;;
2570;SDS011;1295;51.130;6.732;2023-01-28T05:52:56;76.47;;;14.87;;
2570;SDS011;1295;51.130;6.732;2023-01-28T05:55:21;71.17;;;12.43;;
2570;SDS011;1295;51.130;6.732;2023-01-28T05:57:47;77.87;;;14.90;;
2570;SDS011;1295;51.130;6.732;2023-01-28T06:00:13;79.23;;;16.13;;
2570;SDS011;1295;51.130;6.732;2023-01-28T06:02:55;83.70;;;15.10;;
2570;SDS011;1295;51.130;6.732;2023-01-28T06:05:21;74.73;;;15.23;;
2570;SDS011;1295;51.130;6.732;2023-01-28T06:07:46;73.80;;;13.10;;
2570;SDS011;1295;51.130;6.732;2023-01-28T06:10:12;78.20;;;14.87;;
2570;SDS011;1295;51.130;6.732;2023-01-28T06:12:37;72.87;;;13.90;;
2570;SDS011;1295;51.130;6.732;2023-01-28T06:15:03;75.93;;;13.53;;
2570;SDS011;1295;51.130;6.732;2023-01-28T06:17:30;77.33;;;12.57;;
2570;SDS011;1295;51.130;6.732;2023-01-28T06:19:55;76.40;;;13.43;;
2570;SDS011;1295;51.130;6.732;2023-01-28T06:22:21;76.67;;;13.57;;
2570;SDS011;1295;51.130;6.732;2023-01-28T06:24:46;75.33;;;13.73;;
2570;SDS011;1295;51.130;6.732;2023-01-28T06:27:12;71.80;;;11.70;;
2570;SDS011;1295;51.130;6.732;2023-01-28T06:29:38;78.73;;;26.23;;
2570;SDS011;1295;51.130;6.732;2023-01-28T06:32:04;76.67;;;22.03;;
2570;SDS011;1295;51.130;6.732;2023-01-28T06:34:29;76.23;;;18.77;;
2570;SDS011;1295;51.130;6.732;2023-01-28T06:36:55;78.57;;;18.80;;
2570;SDS011;1295;51.130;6.732;2023-01-28T06:39:21;74.80;;;16.40;;
2570;SDS011;1295;51.130;6.732;2023-01-28T06:41:47;71.80;;;12.80;;
2570;SDS011;1295;51.130;6.732;2023-01-28T06:44:12;74.70;;;15.80;;
2570;SDS011;1295;51.130;6.732;2023-01-28T06:46:37;79.40;;;17.03;;
2570;SDS011;1295;51.130;6.732;2023-01-28T06:49:03;76.93;;;17.23;;
2570;SDS011;1295;51.130;6.732;2023-01-28T06:51:29;77.83;;;19.33;;
2570;SDS011;1295;51.130;6.732;2023-01-28T06:53:55;81.40;;;18.73;;
2570;SDS011;1295;51.130;6.732;2023-01-28T06:56:21;77.90;;;23.27;;
2570;SDS011;1295;51.130;6.732;2023-01-28T06:58:46;79.50;;;22.90;;
2570;SDS011;1295;51.130;6.732;2023-01-28T07:01:12;78.43;;;19.53;;
2570;SDS011;1295;51.130;6.732;2023-01-28T07:03:38;76.07;;;17.57;;
2570;SDS011;1295;51.130;6.732;2023-01-28T07:06:03;76.40;;;16.13;;
2570;SDS011;1295;51.130;6.732;2023-01-28T07:08:29;75.80;;;19.83;;
2570;SDS011;1295;51.130;6.732;2023-01-28T07:10:55;83.90;;;28.17;;
2570;SDS011;1295;51.130;6.732;2023-01-28T07:13:21;80.07;;;24.70;;
2570;SDS011;1295;51.130;6.732;2023-01-28T07:15:46;82.33;;;25.53;;
2570;SDS011;1295;51.130;6.732;2023-01-28T07:18:12;80.97;;;22.80;;
2570;SDS011;1295;51.130;6.732;2023-01-28T07:20:37;78.47;;;22.70;;
2570;SDS011;1295;51.130;6.732;2023-01-28T07:23:03;77.10;;;20.90;;
2570;SDS011;1295;51.130;6.732;2023-01-28T07:25:29;76.87;;;20.67;;
2570;SDS011;1295;51.130;6.732;2023-01-28T07:27:54;79.10;;;27.63;;
2570;SDS011;1295;51.130;6.732;2023-01-28T07:30:20;77.07;;;19.37;;
2570;SDS011;1295;51.130;6.732;2023-01-28T07:32:46;73.83;;;13.73;;
2570;SDS011;1295;51.130;6.732;2023-01-28T07:35:12;73.30;;;15.27;;
2570;SDS011;1295;51.130;6.732;2023-01-28T07:37:38;75.30;;;14.90;;
2570;SDS011;1295;51.130;6.732;2023-01-28T07:40:04;78.07;;;24.40;;
2570;SDS011;1295;51.130;6.732;2023-01-28T07:42:30;78.50;;;20.30;;
2570;SDS011;1295;51.130;6.732;2023-01-28T07:44:56;79.57;;;26.03;;
2570;SDS011;1295;51.130;6.732;2023-01-28T07:47:22;80.40;;;21.67;;
2570;SDS011;1295;51.130;6.732;2023-01-28T07:49:47;77.10;;;19.60;;
2570;SDS011;1295;51.130;6.732;2023-01-28T07:52:13;77.67;;;17.20;;
2570;SDS011;1295;51.130;6.732;2023-01-28T07:54:53;82.17;;;17.90;;
2570;SDS011;1295;51.130;6.732;2023-01-28T07:57:19;80.03;;;16.37;;
2570;SDS011;1295;51.130;6.732;2023-01-28T07:59:45;84.80;;;21.70;;
2570;SDS011;1295;51.130;6.732;2023-01-28T08:02:11;80.27;;;18.97;;
2570;SDS011;1295;51.130;6.732;2023-01-28T08:04:37;81.27;;;28.83;;
2570;SDS011;1295;51.130;6.732;2023-01-28T08:07:02;76.77;;;12.80;;
2570;SDS011;1295;51.130;6.732;2023-01-28T08:09:28;80.83;;;16.33;;
2570;SDS011;1295;51.130;6.732;2023-01-28T08:11:53;77.03;;;25.07;;
2570;SDS011;1295;51.130;6.732;2023-01-28T08:14:20;74.40;;;14.60;;
2570;SDS011;1295;51.130;6.732;2023-01-28T08:16:45;77.10;;;14.83;;
2570;SDS011;1295;51.130;6.732;2023-01-28T08:19:11;77.07;;;15.93;;
2570;SDS011;1295;51.130;6.732;2023-01-28T08:21:37;81.00;;;31.40;;
2570;SDS011;1295;51.130;6.732;2023-01-28T08:24:02;81.20;;;23.83;;
2570;SDS011;1295;51.130;6.732;2023-01-28T08:26:28;80.00;;;14.33;;
2570;SDS011;1295;51.130;6.732;2023-01-28T08:28:55;79.03;;;19.43;;
2570;SDS011;1295;51.130;6.732;2023-01-28T08:31:21;77.50;;;13.80;;
2570;SDS011;1295;51.130;6.732;2023-01-28T08:33:47;81.70;;;30.97;;
2570;SDS011;1295;51.130;6.732;2023-01-28T08:36:13;79.40;;;19.93;;
2570;SDS011;1295;51.130;6.732;2023-01-28T08:38:45;76.97;;;18.60;;
2570;SDS011;1295;51.130;6.732;2023-01-28T08:41:10;75.70;;;16.20;;
2570;SDS011;1295;51.130;6.732;2023-01-28T08:43:36;80.30;;;18.77;;
2570;SDS011;1295;51.130;6.732;2023-01-28T08:46:04;77.07;;;20.83;;
2570;SDS011;1295;51.130;6.732;2023-01-28T08:48:27;77.40;;;17.40;;
2570;SDS011;1295;51.130;6.732;2023-01-28T08:50:54;81.77;;;23.13;;
2570;SDS011;1295;51.130;6.732;2023-01-28T08:53:19;84.27;;;39.53;;
2570;SDS011;1295;51.130;6.732;2023-01-28T08:55:45;94.63;;;59.00;;
2570;SDS011;1295;51.130;6.732;2023-01-28T08:58:12;102.13;;;74.63;;
2570;SDS011;1295;51.130;6.732;2023-01-28T09:00:36;93.80;;;69.23;;
2570;SDS011;1295;51.130;6.732;2023-01-28T09:03:02;96.30;;;65.20;;
2570;SDS011;1295;51.130;6.732;2023-01-28T09:05:27;97.33;;;67.27;;
2570;SDS011;1295;51.130;6.732;2023-01-28T09:07:53;91.30;;;54.73;;
2570;SDS011;1295;51.130;6.732;2023-01-28T09:10:19;98.50;;;74.23;;
2570;SDS011;1295;51.130;6.732;2023-01-28T09:12:45;88.90;;;38.50;;
2570;SDS011;1295;51.130;6.732;2023-01-28T09:15:11;80.90;;;27.67;;
2570;SDS011;1295;51.130;6.732;2023-01-28T09:17:36;75.67;;;19.77;;
2570;SDS011;1295;51.130;6.732;2023-01-28T09:20:02;77.13;;;16.67;;
2570;SDS011;1295;51.130;6.732;2023-01-28T09:22:29;78.80;;;16.50;;
2570;SDS011;1295;51.130;6.732;2023-01-28T09:24:54;83.40;;;16.03;;
2570;SDS011;1295;51.130;6.732;2023-01-28T09:27:20;74.37;;;16.37;;
2570;SDS011;1295;51.130;6.732;2023-01-28T09:29:45;82.33;;;18.87;;
2570;SDS011;1295;51.130;6.732;2023-01-28T09:32:19;76.27;;;20.30;;
2570;SDS011;1295;51.130;6.732;2023-01-28T09:34:44;78.37;;;23.67;;
2570;SDS011;1295;51.130;6.732;2023-01-28T09:37:10;89.50;;;37.40;;
2570;SDS011;1295;51.130;6.732;2023-01-28T09:39:36;93.90;;;69.53;;
2570;SDS011;1295;51.130;6.732;2023-01-28T09:42:09;122.47;;;110.83;;
2570;SDS011;1295;51.130;6.732;2023-01-28T09:45:08;180.47;;;166.73;;
2570;SDS011;1295;51.130;6.732;2023-01-28T09:47:16;228.33;;;213.13;;
2570;SDS011;1295;51.130;6.732;2023-01-28T09:49:56;320.53;;;301.87;;
2570;SDS011;1295;51.130;6.732;2023-01-28T09:52:22;341.37;;;321.70;;
2570;SDS011;1295;51.130;6.732;2023-01-28T09:54:49;292.30;;;274.80;;
2570;SDS011;1295;51.130;6.732;2023-01-28T09:57:16;384.37;;;362.97;;
2570;SDS011;1295;51.130;6.732;2023-01-28T09:59:38;414.17;;;391.47;;
2570;SDS011;1295;51.130;6.732;2023-01-28T10:05:04;392.57;;;370.60;;
2570;SDS011;1295;51.130;6.732;2023-01-28T10:07:51;264.30;;;247.73;;
2570;SDS011;1295;51.130;6.732;2023-01-28T10:10:24;289.80;;;272.40;;
2570;SDS011;1295;51.130;6.732;2023-01-28T10:15:29;209.30;;;193.57;;
2570;SDS011;1295;51.130;6.732;2023-01-28T10:18:09;320.60;;;301.50;;
2570;SDS011;1295;51.130;6.732;2023-01-28T10:20:37;236.17;;;220.13;;
2570;SDS011;1295;51.130;6.732;2023-01-28T10:23:09;224.57;;;208.63;;
2570;SDS011;1295;51.130;6.732;2023-01-28T10:25:37;294.37;;;276.37;;
2570;SDS011;1295;51.130;6.732;2023-01-28T10:28:04;376.20;;;354.13;;
2570;SDS011;1295;51.130;6.732;2023-01-28T10:30:30;473.53;;;447.83;;
2570;SDS011;1295;51.130;6.732;2023-01-28T10:33:32;396.77;;;374.20;;
2570;SDS011;1295;51.130;6.732;2023-01-28T10:35:42;491.23;;;465.30;;
2570;SDS011;1295;51.130;6.732;2023-01-28T10:38:09;500.03;;;473.00;;
2570;SDS011;1295;51.130;6.732;2023-01-28T10:40:34;97.87;;;47.63;;
2570;SDS011;1295;51.130;6.732;2023-01-28T10:42:59;297.97;;;279.40;;
2570;SDS011;1295;51.130;6.732;2023-01-28T10:45:26;353.17;;;332.80;;
2570;SDS011;1295;51.130;6.732;2023-01-28T10:47:53;450.73;;;426.13;;
2570;SDS011;1295;51.130;6.732;2023-01-28T10:50:22;377.03;;;355.77;;
2570;SDS011;1295;51.130;6.732;2023-01-28T10:52:54;349.07;;;328.80;;
2570;SDS011;1295;51.130;6.732;2023-01-28T10:55:19;301.00;;;282.70;;
2570;SDS011;1295;51.130;6.732;2023-01-28T10:57:45;260.73;;;243.53;;
2570;SDS011;1295;51.130;6.732;2023-01-28T11:00:28;346.83;;;326.33;;
2570;SDS011;1295;51.130;6.732;2023-01-28T11:02:52;353.57;;;333.07;;
2570;SDS011;1295;51.130;6.732;2023-01-28T11:05:19;381.30;;;360.50;;
2570;SDS011;1295;51.130;6.732;2023-01-28T11:07:43;252.43;;;235.90;;
2570;SDS011;1295;51.130;6.732;2023-01-28T11:12:53;86.17;;;33.30;;
2570;SDS011;1295;51.130;6.732;2023-01-28T11:15:16;172.23;;;157.67;;
2570;SDS011;1295;51.130;6.732;2023-01-28T11:17:52;91.70;;;43.60;;
2570;SDS011;1295;51.130;6.732;2023-01-28T11:20:10;107.80;;;79.90;;
2570;SDS011;1295;51.130;6.732;2023-01-28T11:22:36;110.53;;;82.73;;
2570;SDS011;1295;51.130;6.732;2023-01-28T11:25:01;97.83;;;58.57;;
2570;SDS011;1295;51.130;6.732;2023-01-28T11:27:28;91.37;;;31.23;;
2570;SDS011;1295;51.130;6.732;2023-01-28T11:29:52;111.47;;;96.43;;
2570;SDS011;1295;51.130;6.732;2023-01-28T11:32:19;98.57;;;47.73;;
2570;SDS011;1295;51.130;6.732;2023-01-28T11:34:50;102.40;;;42.67;;
2570;SDS011;1295;51.130;6.732;2023-01-28T11:37:15;90.50;;;44.33;;
2570;SDS011;1295;51.130;6.732;2023-01-28T11:39:42;87.63;;;36.53;;
2570;SDS011;1295;51.130;6.732;2023-01-28T11:42:11;97.30;;;51.63;;
2570;SDS011;1295;51.130;6.732;2023-01-28T11:44:37;89.97;;;28.17;;
2570;SDS011;1295;51.130;6.732;2023-01-28T11:49:59;89.30;;;34.40;;
2570;SDS011;1295;51.130;6.732;2023-01-28T11:58:05;106.30;;;80.07;;
2570;SDS011;1295;51.130;6.732;2023-01-28T12:00:32;106.67;;;67.43;;
2570;SDS011;1295;51.130;6.732;2023-01-28T12:03:01;103.50;;;71.30;;
2570;SDS011;1295;51.130;6.732;2023-01-28T12:05:48;105.73;;;57.60;;
2570;SDS011;1295;51.130;6.732;2023-01-28T12:08:19;95.57;;;47.17;;
2570;SDS011;1295;51.130;6.732;2023-01-28T12:11:22;96.33;;;42.80;;
2570;SDS011;1295;51.130;6.732;2023-01-28T12:13:34;99.40;;;39.63;;
2570;SDS011;1295;51.130;6.732;2023-01-28T12:16:01;104.40;;;57.23;;
2570;SDS011;1295;51.130;6.732;2023-01-28T12:18:59;106.77;;;89.83;;
2570;SDS011;1295;51.130;6.732;2023-01-28T12:21:05;109.23;;;92.50;;
2570;SDS011;1295;51.130;6.732;2023-01-28T12:23:37;96.90;;;52.80;;
2570;SDS011;1295;51.130;6.732;2023-01-28T12:26:04;111.43;;;86.67;;
2570;SDS011;1295;51.130;6.732;2023-01-28T12:28:46;106.43;;;69.93;;
2570;SDS011;1295;51.130;6.732;2023-01-28T12:31:13;113.50;;;86.10;;
2570;SDS011;1295;51.130;6.732;2023-01-28T12:34:02;99.47;;;62.50;;
2570;SDS011;1295;51.130;6.732;2023-01-28T12:36:50;120.67;;;85.37;;
2570;SDS011;1295;51.130;6.732;2023-01-28T12:39:21;126.33;;;111.57;;
2570;SDS011;1295;51.130;6.732;2023-01-28T12:41:50;112.23;;;79.90;;
2570;SDS011;1295;51.130;6.732;2023-01-28T12:44:19;163.27;;;148.97;;
2570;SDS011;1295;51.130;6.732;2023-01-28T12:46:44;144.57;;;129.33;;
2570;SDS011;1295;51.130;6.732;2023-01-28T12:49:15;156.13;;;140.80;;
2570;SDS011;1295;51.130;6.732;2023-01-28T12:51:48;131.87;;;118.00;;
2570;SDS011;1295;51.130;6.732;2023-01-28T12:54:16;95.20;;;40.17;;
2570;SDS011;1295;51.130;6.732;2023-01-28T12:56:49;100.97;;;50.97;;
2570;SDS011;1295;51.130;6.732;2023-01-28T12:59:17;115.40;;;102.57;;
2570;SDS011;1295;51.130;6.732;2023-01-28T13:01:43;115.93;;;103.37;;
2570;SDS011;1295;51.130;6.732;2023-01-28T13:04:11;144.67;;;130.17;;
2570;SDS011;1295;51.130;6.732;2023-01-28T13:06:40;103.47;;;62.27;;
2570;SDS011;1295;51.130;6.732;2023-01-28T13:09:09;111.13;;;72.83;;
2570;SDS011;1295;51.130;6.732;2023-01-28T13:11:30;107.50;;;86.07;;
2570;SDS011;1295;51.130;6.732;2023-01-28T13:13:54;84.40;;;22.23;;
2570;SDS011;1295;51.130;6.732;2023-01-28T13:16:19;90.67;;;34.47;;
2570;SDS011;1295;51.130;6.732;2023-01-28T13:18:45;89.40;;;29.60;;
2570;SDS011;1295;51.130;6.732;2023-01-28T13:26:47;91.47;;;25.80;;
2570;SDS011;1295;51.130;6.732;2023-01-28T13:29:27;104.97;;;68.77;;
2570;SDS011;1295;51.130;6.732;2023-01-28T13:31:57;104.60;;;62.77;;
2570;SDS011;1295;51.130;6.732;2023-01-28T13:39:45;86.60;;;35.47;;
2570;SDS011;1295;51.130;6.732;2023-01-28T13:42:09;96.80;;;51.33;;
2570;SDS011;1295;51.130;6.732;2023-01-28T13:44:35;83.93;;;30.00;;
2570;SDS011;1295;51.130;6.732;2023-01-28T13:49:57;85.77;;;29.97;;
2570;SDS011;1295;51.130;6.732;2023-01-28T13:52:26;84.83;;;22.57;;
2570;SDS011;1295;51.130;6.732;2023-01-28T13:54:54;88.70;;;20.70;;
2570;SDS011;1295;51.130;6.732;2023-01-28T13:57:29;84.80;;;20.93;;
2570;SDS011;1295;51.130;6.732;2023-01-28T14:00:01;87.27;;;20.50;;
2570;SDS011;1295;51.130;6.732;2023-01-28T14:04:58;85.20;;;22.83;;
2570;SDS011;1295;51.130;6.732;2023-01-28T14:10:16;82.27;;;19.60;;
2570;SDS011;1295;51.130;6.732;2023-01-28T14:14:02;83.50;;;19.57;;
2570;SDS011;1295;51.130;6.732;2023-01-28T14:15:39;82.43;;;25.40;;
2570;SDS011;1295;51.130;6.732;2023-01-28T14:18:04;95.80;;;60.50;;
2570;SDS011;1295;51.130;6.732;2023-01-28T14:20:30;88.23;;;31.40;;
2570;SDS011;1295;51.130;6.732;2023-01-28T14:23:04;91.77;;;45.37;;
2570;SDS011;1295;51.130;6.732;2023-01-28T14:25:34;97.90;;;43.17;;
2570;SDS011;1295;51.130;6.732;2023-01-28T14:28:00;85.27;;;22.27;;
2570;SDS011;1295;51.130;6.732;2023-01-28T14:30:40;83.57;;;26.40;;
2570;SDS011;1295;51.130;6.732;2023-01-28T14:32:53;97.07;;;56.93;;
2570;SDS011;1295;51.130;6.732;2023-01-28T14:35:24;102.33;;;81.27;;
2570;SDS011;1295;51.130;6.732;2023-01-28T14:37:45;115.03;;;102.57;;
2570;SDS011;1295;51.130;6.732;2023-01-28T14:40:13;130.40;;;117.90;;
2570;SDS011;1295;51.130;6.732;2023-01-28T14:42:41;93.93;;;41.30;;
2570;SDS011;1295;51.130;6.732;2023-01-28T14:45:15;89.03;;;37.00;;
2570;SDS011;1295;51.130;6.732;2023-01-28T14:47:52;170.17;;;156.30;;
2570;SDS011;1295;51.130;6.732;2023-01-28T14:50:26;134.80;;;121.13;;
2570;SDS011;1295;51.130;6.732;2023-01-28T14:58:15;116.87;;;104.67;;
2570;SDS011;1295;51.130;6.732;2023-01-28T15:00:40;107.83;;;93.00;;
2570;SDS011;1295;51.130;6.732;2023-01-28T15:03:08;145.20;;;132.30;;
2570;SDS011;1295;51.130;6.732;2023-01-28T15:05:33;97.87;;;63.37;;
2570;SDS011;1295;51.130;6.732;2023-01-28T15:07:59;119.37;;;107.27;;
2570;SDS011;1295;51.130;6.732;2023-01-28T15:10:26;149.53;;;135.90;;
2570;SDS011;1295;51.130;6.732;2023-01-28T15:12:52;106.53;;;88.07;;
2570;SDS011;1295;51.130;6.732;2023-01-28T15:15:18;137.17;;;124.00;;
2570;SDS011;1295;51.130;6.732;2023-01-28T15:17:42;141.57;;;129.03;;
2570;SDS011;1295;51.130;6.732;2023-01-28T15:20:08;174.43;;;160.07;;
2570;SDS011;1295;51.130;6.732;2023-01-28T15:22:35;140.57;;;126.97;;
2570;SDS011;1295;51.130;6.732;2023-01-28T15:25:00;143.47;;;130.50;;
2570;SDS011;1295;51.130;6.732;2023-01-28T15:27:27;130.27;;;116.50;;
2570;SDS011;1295;51.130;6.732;2023-01-28T15:29:52;125.53;;;113.43;;
2570;SDS011;1295;51.130;6.732;2023-01-28T15:32:21;170.17;;;156.17;;